Time;durP1;ratioP1;P1;durP2;ratioP2;P2;SDS_P1;SDS_P2;PMS_P1;PMS_P2;Temp;Humidity;BMP_temperature;BMP_pressure;BME280_temperature;BME280_humidity;BME280_pressure;Samples;Min_cycle;Max_cycle;Signal;HPM_P1;HPM_P2
2022/10/18 00:02:20;;;;;;;;;9.50;8.25;;;;;19.10;83.26;102020.22;5021574;28;46056;-70
2022/10/18 00:04:46;;;;;;;;;9.25;9.25;;;;;19.03;83.14;102004.28;5014030;28;45424;-70
2022/10/18 00:07:11;;;;;;;;;10.50;9.00;;;;;19.07;82.96;102008.56;5020269;28;45296;-70
2022/10/18 00:09:36;;;;;;;;;7.00;6.50;;;;;19.00;83.03;102007.13;5020244;28;45488;-70
2022/10/18 00:12:02;;;;;;;;;11.75;9.25;;;;;18.99;83.41;102008.06;5010873;28;45299;-70
2022/10/18 00:14:27;;;;;;;;;9.75;9.25;;;;;19.01;83.12;102014.31;5020060;28;45372;-70
2022/10/18 00:16:53;;;;;;;;;9.00;9.00;;;;;19.06;83.01;102025.78;5020238;28;46113;-69
2022/10/18 00:19:18;;;;;;;;;10.50;9.25;;;;;19.04;82.96;102021.38;5020161;28;46072;-70
2022/10/18 00:21:43;;;;;;;;;9.25;7.00;;;;;19.04;83.23;102026.78;5019504;28;45476;-69
2022/10/18 00:24:09;;;;;;;;;8.00;8.00;;;;;19.07;83.25;102034.78;5003477;28;45429;-69
2022/10/18 00:26:34;;;;;;;;;11.00;11.00;;;;;19.07;83.16;102034.78;5019483;28;45379;-69
2022/10/18 00:29:02;;;;;;;;;7.00;7.00;;;;;19.07;83.16;102042.88;5019865;28;46374;-70
2022/10/18 00:31:30;;;;;;;;;9.75;8.25;;;;;19.03;83.08;102036.75;5020511;28;45633;-70
2022/10/18 00:34:01;;;;;;;;;9.00;8.25;;;;;19.06;83.38;102050.13;5017989;28;45352;-69
2022/10/18 00:36:28;;;;;;;;;12.50;8.25;;;;;19.06;83.28;102043.81;5010561;28;45351;-69
2022/10/18 00:38:53;;;;;;;;;11.75;10.75;;;;;19.07;83.19;102043.75;5027617;28;48172;-69
2022/10/18 00:41:22;;;;;;;;;9.25;8.25;;;;;19.06;83.50;102035.72;5019714;28;45364;-69
2022/10/18 00:43:55;;;;;;;;;10.50;10.50;;;;;19.05;83.20;102037.53;5017852;28;45382;-70
2022/10/18 00:46:22;;;;;;;;;10.75;8.25;;;;;19.01;82.94;102026.94;5007433;28;45254;-70
2022/10/18 00:48:47;;;;;;;;;11.00;8.50;;;;;18.98;83.21;102021.69;5018293;28;47056;-70
2022/10/18 00:51:15;;;;;;;;;8.00;8.00;;;;;19.01;83.13;102035.06;5017427;28;45328;-70
2022/10/18 00:53:41;;;;;;;;;10.50;10.50;;;;;19.01;83.28;102040.47;5019806;28;45387;-70
2022/10/18 00:56:06;;;;;;;;;10.50;10.50;;;;;19.05;83.30;102051.06;5015949;28;45330;-70
2022/10/18 00:58:33;;;;;;;;;13.25;10.00;;;;;19.04;83.32;102046.63;5015720;28;46853;-70
2022/10/18 01:00:58;;;;;;;;;10.75;10.50;;;;;18.99;83.13;102039.66;5028521;28;45384;-70
2022/10/18 01:03:24;;;;;;;;;7.50;7.00;;;;;19.05;83.48;102053.78;5019058;28;45303;-70
2022/10/18 01:05:49;;;;;;;;;8.00;7.25;;;;;19.05;83.21;102053.78;5017606;28;45546;-69
2022/10/18 01:08:37;;;;;;;;;15.25;12.50;;;;;19.04;83.51;102053.84;5013569;28;45898;-69
2022/10/18 01:11:21;;;;;;;;;11.25;11.25;;;;;19.04;83.30;102056.56;5019460;28;45320;-69
2022/10/18 01:14:01;;;;;;;;;14.25;11.50;;;;;19.03;83.33;102044.88;5028381;28;45603;-69
2022/10/18 01:16:47;;;;;;;;;11.50;11.50;;;;;18.95;83.24;102048.88;5018305;28;45314;-70
2022/10/18 01:20:03;;;;;;;;;13.00;12.00;;;;;18.92;83.27;102040.91;5018308;28;45536;-70
2022/10/18 01:22:50;;;;;;;;;12.00;11.50;;;;;18.88;83.51;102041.06;5012168;28;45335;-69
2022/10/18 01:25:18;;;;;;;;;9.50;7.50;;;;;19.00;83.54;102054.97;5001430;28;45330;-70
2022/10/18 01:28:01;;;;;;;;;11.50;10.50;;;;;18.94;83.29;102042.56;5011489;28;45302;-70
2022/10/18 01:30:46;;;;;;;;;11.75;10.50;;;;;18.98;83.43;102049.63;5017668;28;46010;-70
2022/10/18 01:33:18;;;;;;;;;14.25;12.75;;;;;18.97;83.29;102057.81;5016873;28;45451;-70
2022/10/18 01:35:51;;;;;;;;;13.00;13.00;;;;;18.96;83.57;102061.44;5010482;28;45376;-69
2022/10/18 01:38:19;;;;;;;;;12.00;11.75;;;;;18.95;83.28;102066.00;5014231;28;45803;-69
2022/10/18 01:40:48;;;;;;;;;12.00;11.75;;;;;18.94;83.08;102058.81;5018920;28;46778;-70
2022/10/18 01:43:16;;;;;;;;;13.00;12.50;;;;;18.78;83.31;102028.88;5011857;28;45429;-70
2022/10/18 01:45:41;;;;;;;;;11.25;9.50;;;;;18.95;83.54;102063.28;4999608;28;45456;-70
2022/10/18 01:48:09;;;;;;;;;12.50;11.50;;;;;18.90;83.33;102056.34;5017631;28;45445;-70
2022/10/18 01:50:34;;;;;;;;;13.00;11.75;;;;;18.90;83.43;102059.91;5018704;28;45629;-69
2022/10/18 01:53:00;;;;;;;;;15.25;15.25;;;;;18.85;83.32;102049.31;5009057;28;45364;-70
2022/10/18 01:55:34;;;;;;;;;11.25;11.25;;;;;18.91;83.41;102056.28;5011061;28;45545;-70
2022/10/18 01:58:08;;;;;;;;;14.25;12.75;;;;;18.90;83.13;102048.22;5018601;28;45579;-70
2022/10/18 02:01:16;;;;;;;;;14.75;13.50;;;;;18.90;83.34;102042.81;5028916;28;46220;-70
2022/10/18 02:03:46;;;;;;;;;12.25;12.25;;;;;18.81;83.42;102039.56;5018186;28;45459;-70
2022/10/18 02:06:30;;;;;;;;;13.00;12.00;;;;;18.83;83.28;102037.69;5018588;28;45824;-69
2022/10/18 02:09:08;;;;;;;;;16.75;14.75;;;;;18.82;83.06;102035.88;5006428;28;45395;-70
2022/10/18 02:11:37;;;;;;;;;15.50;12.75;;;;;18.79;83.15;102036.03;5016998;28;47135;-69
2022/10/18 02:14:08;;;;;;;;;14.25;12.75;;;;;18.85;83.38;102045.72;5018386;28;45413;-70
2022/10/18 02:16:44;;;;;;;;;13.50;13.25;;;;;18.80;83.25;102048.59;5020396;28;45509;-69
2022/10/18 02:19:31;;;;;;;;;12.75;12.00;;;;;18.82;83.04;102052.13;5021231;28;45396;-70
2022/10/18 02:21:58;;;;;;;;;13.75;13.00;;;;;18.81;83.06;102052.19;5010386;28;46110;-69
2022/10/18 02:24:33;;;;;;;;;15.75;14.75;;;;;18.81;83.04;102047.66;5022909;28;45264;-69
2022/10/18 02:26:58;;;;;;;;;15.75;14.25;;;;;18.80;83.04;102053.16;5022025;28;45457;-69
2022/10/18 02:29:24;;;;;;;;;15.75;12.75;;;;;18.71;82.89;102046.34;5021583;28;45376;-70
2022/10/18 02:31:58;;;;;;;;;19.00;13.75;;;;;18.77;82.85;102056.84;5019954;28;45387;-70
2022/10/18 02:34:34;;;;;;;;;17.50;15.75;;;;;18.69;82.97;102042.81;5021789;28;45486;-69
2022/10/18 02:37:01;;;;;;;;;13.75;12.50;;;;;18.74;83.05;102056.13;5021467;28;45345;-70
2022/10/18 02:39:34;;;;;;;;;19.00;14.50;;;;;18.62;82.89;102044.06;5021688;28;45463;-70
2022/10/18 02:42:00;;;;;;;;;12.00;12.00;;;;;18.72;82.66;102067.00;5021652;28;46481;-70
2022/10/18 02:44:25;;;;;;;;;11.50;11.50;;;;;18.65;82.91;102058.31;5019804;28;45450;-70
2022/10/18 02:46:51;;;;;;;;;18.00;14.00;;;;;18.67;82.69;102072.63;5021833;28;45448;-70
2022/10/18 02:49:16;;;;;;;;;16.75;13.25;;;;;18.49;82.60;102044.63;5020306;28;45394;-70
2022/10/18 02:51:42;;;;;;;;;14.50;13.50;;;;;18.67;82.43;102085.28;5019319;28;46787;-70
2022/10/18 02:54:07;;;;;;;;;15.50;14.75;;;;;18.64;82.52;102071.91;5013329;28;45404;-69
2022/10/18 02:56:33;;;;;;;;;18.00;15.25;;;;;18.58;82.70;102078.47;5021045;28;45616;-70
2022/10/18 02:58:59;;;;;;;;;16.00;13.75;;;;;18.59;82.42;102084.75;5018607;28;45466;-70
2022/10/18 03:01:24;;;;;;;;;12.25;12.25;;;;;18.61;82.66;102086.44;5020207;28;46365;-70
2022/10/18 03:03:49;;;;;;;;;12.00;10.50;;;;;18.61;83.27;102083.75;5018188;28;45538;-70
2022/10/18 03:06:15;;;;;;;;;16.50;15.00;;;;;18.59;83.36;102077.50;5015305;28;45541;-70
2022/10/18 03:08:40;;;;;;;;;13.25;11.00;;;;;18.58;82.86;102083.00;5021214;28;45264;-69
2022/10/18 03:11:06;;;;;;;;;19.50;17.50;;;;;18.52;83.01;102071.50;5019876;28;46360;-70
2022/10/18 03:13:32;;;;;;;;;17.50;16.25;;;;;18.53;83.12;102061.56;5014310;28;45408;-70
2022/10/18 03:15:58;;;;;;;;;14.50;14.50;;;;;18.54;83.17;102067.84;5013285;28;45354;-70
2022/10/18 03:18:23;;;;;;;;;15.25;15.25;;;;;18.45;83.14;102067.31;5019353;28;45377;-70
2022/10/18 03:20:48;;;;;;;;;19.50;15.75;;;;;18.65;83.41;102089.88;5020999;28;45403;-70
2022/10/18 03:23:14;;;;;;;;;21.00;17.50;;;;;18.64;83.13;102096.22;5019593;28;45408;-69
2022/10/18 03:25:39;;;;;;;;;15.75;13.50;;;;;18.66;82.92;102105.16;5000112;28;45382;-70
2022/10/18 03:28:04;;;;;;;;;16.50;15.75;;;;;18.65;83.24;102112.41;5018615;28;45414;-70
2022/10/18 03:30:30;;;;;;;;;14.00;13.75;;;;;18.61;83.30;102096.38;5020073;28;46516;-70
2022/10/18 03:32:55;;;;;;;;;13.50;13.50;;;;;18.62;83.42;102108.94;5020104;28;45386;-70
2022/10/18 03:35:21;;;;;;;;;14.25;13.75;;;;;18.60;82.92;102094.63;5003126;28;45577;-70
2022/10/18 03:37:46;;;;;;;;;17.00;14.50;;;;;18.57;82.99;102094.75;5032436;28;45575;-69
2022/10/18 03:40:12;;;;;;;;;18.50;15.00;;;;;18.63;83.19;102105.31;5009659;28;46984;-69
2022/10/18 03:42:37;;;;;;;;;18.00;18.00;;;;;18.66;82.80;102105.16;5008475;28;45399;-70
2022/10/18 03:45:03;;;;;;;;;12.50;11.50;;;;;18.63;82.91;102102.59;5011123;28;45469;-69
2022/10/18 03:47:29;;;;;;;;;19.00;16.75;;;;;18.66;82.72;102110.56;5022119;28;45403;-69
2022/10/18 03:49:54;;;;;;;;;17.50;13.75;;;;;18.58;82.80;102102.81;5020706;28;45395;-70
2022/10/18 03:52:19;;;;;;;;;18.25;17.00;;;;;18.63;83.03;102111.59;5017233;28;45878;-69
2022/10/18 03:54:44;;;;;;;;;15.25;14.75;;;;;18.63;83.24;102122.41;5014258;28;47088;-69
2022/10/18 03:57:10;;;;;;;;;19.25;17.50;;;;;18.55;82.94;102108.34;5020197;28;45454;-70
2022/10/18 03:59:35;;;;;;;;;14.75;14.25;;;;;18.54;83.05;102111.13;5020250;28;45340;-70
2022/10/18 04:02:00;;;;;;;;;17.00;14.50;;;;;18.53;83.27;102107.53;5019796;28;45312;-70
2022/10/18 04:04:26;;;;;;;;;16.75;15.75;;;;;18.61;83.06;102124.31;5020363;28;45472;-70
2022/10/18 04:06:51;;;;;;;;;19.00;17.75;;;;;18.60;83.20;102116.25;5011375;28;46221;-69
2022/10/18 04:09:16;;;;;;;;;18.50;18.00;;;;;18.51;82.79;102113.00;5020355;28;46128;-70
2022/10/18 04:11:42;;;;;;;;;19.50;16.25;;;;;18.58;83.04;102124.44;5018806;28;45293;-70
2022/10/18 04:14:07;;;;;;;;;17.25;14.50;;;;;18.57;83.24;102122.66;5028987;28;45580;-70
2022/10/18 04:16:32;;;;;;;;;20.50;16.25;;;;;18.59;83.11;102125.31;5018567;28;46173;-70
2022/10/18 04:18:58;;;;;;;;;19.00;18.00;;;;;18.59;82.89;102122.59;4995777;28;46386;-70
2022/10/18 04:21:23;;;;;;;;;22.75;17.50;;;;;18.61;82.86;102127.00;5014262;28;45364;-70
2022/10/18 04:23:49;;;;;;;;;20.75;20.75;;;;;18.59;83.13;102128.00;5020236;28;45269;-70
2022/10/18 04:26:16;;;;;;;;;20.00;18.75;;;;;18.61;83.18;102134.22;5019868;28;45361;-70
2022/10/18 04:28:42;;;;;;;;;16.75;16.75;;;;;18.63;82.97;102135.06;5019867;28;46347;-70
2022/10/18 04:31:09;;;;;;;;;17.50;17.50;;;;;18.58;82.86;102127.13;5017938;28;45403;-69
2022/10/18 04:33:34;;;;;;;;;16.75;16.50;;;;;18.60;82.95;102129.78;5015653;28;45444;-70
2022/10/18 04:35:59;;;;;;;;;20.25;19.25;;;;;18.55;83.12;102113.75;5014688;28;45720;-70
2022/10/18 04:38:25;;;;;;;;;17.25;15.50;;;;;18.64;82.81;102131.38;5019725;28;45557;-70
2022/10/18 04:40:50;;;;;;;;;18.00;15.50;;;;;18.59;82.78;102118.06;5006439;28;45450;-70
2022/10/18 04:43:15;;;;;;;;;20.00;18.25;;;;;18.61;83.02;102124.31;5019757;28;45315;-70
2022/10/18 04:45:41;;;;;;;;;20.00;19.50;;;;;18.58;82.86;102119.03;5019834;28;45332;-70
2022/10/18 04:48:06;;;;;;;;;21.50;20.00;;;;;18.59;82.92;102134.28;5018102;28;47979;-70
2022/10/18 04:50:32;;;;;;;;;24.25;20.25;;;;;18.61;83.09;102126.09;5019754;28;45324;-70
2022/10/18 04:52:57;;;;;;;;;22.75;20.50;;;;;18.60;82.82;102127.06;5031930;28;45441;-70
2022/10/18 04:55:22;;;;;;;;;18.25;18.25;;;;;18.57;82.60;102124.50;5019446;28;45301;-70
2022/10/18 04:57:48;;;;;;;;;20.50;17.00;;;;;18.58;82.70;102134.38;5016170;28;45410;-70
2022/10/18 05:00:13;;;;;;;;;19.00;18.75;;;;;18.55;82.87;102139.94;5019305;28;45296;-70
2022/10/18 05:02:39;;;;;;;;;17.25;17.25;;;;;18.57;83.20;102152.41;5019790;28;45436;-69
2022/10/18 05:05:04;;;;;;;;;21.25;17.25;;;;;18.55;82.93;102148.03;5016214;28;45296;-69
2022/10/18 05:07:29;;;;;;;;;23.50;19.50;;;;;18.57;82.79;102147.00;5018388;28;45339;-69
2022/10/18 05:09:55;;;;;;;;;23.75;19.00;;;;;18.37;83.05;102120.84;5019376;28;45472;-69
2022/10/18 05:12:21;;;;;;;;;16.25;16.25;;;;;18.51;82.70;102140.06;5019568;28;45601;-70
2022/10/18 05:14:46;;;;;;;;;22.25;19.50;;;;;18.55;82.91;102148.03;5008478;28;45514;-70
2022/10/18 05:17:12;;;;;;;;;18.00;16.25;;;;;18.50;82.59;102143.69;5022282;28;47056;-70
2022/10/18 05:19:37;;;;;;;;;24.75;22.50;;;;;18.45;82.72;102134.91;5023977;28;45743;-70
2022/10/18 05:22:03;;;;;;;;;21.00;18.25;;;;;18.41;82.55;102127.88;5008555;28;45553;-69
2022/10/18 05:24:28;;;;;;;;;17.75;17.25;;;;;18.45;82.54;102148.41;5019168;28;45366;-69
2022/10/18 05:26:53;;;;;;;;;23.75;20.00;;;;;18.44;82.32;102145.78;5011462;28;46224;-69
2022/10/18 05:29:19;;;;;;;;;23.00;20.25;;;;;18.45;82.54;102151.13;5018805;28;45327;-70
2022/10/18 05:31:44;;;;;;;;;22.50;20.25;;;;;18.44;82.36;102146.69;5017223;28;45708;-70
2022/10/18 05:34:09;;;;;;;;;15.00;13.00;;;;;18.30;82.39;102127.47;5018902;28;45720;-70
2022/10/18 05:36:35;;;;;;;;;21.50;20.50;;;;;18.35;82.46;102141.66;5018479;28;46528;-70
2022/10/18 05:39:04;;;;;;;;;15.50;15.00;;;;;18.40;82.13;102150.44;5018077;28;45406;-70
2022/10/18 05:41:29;;;;;;;;;21.50;19.00;;;;;18.20;81.95;102118.84;5018782;28;45387;-69
2022/10/18 05:43:55;;;;;;;;;19.25;16.00;;;;;18.29;82.13;102129.28;5017286;28;45434;-69
2022/10/18 05:46:20;;;;;;;;;19.75;19.00;;;;;18.32;82.20;102136.38;5018753;28;46203;-70
2022/10/18 05:48:49;;;;;;;;;17.00;16.00;;;;;18.27;82.15;102135.69;5018669;28;45665;-70
2022/10/18 05:51:15;;;;;;;;;14.75;14.00;;;;;18.36;82.21;102153.34;5017234;28;45474;-70
2022/10/18 05:53:40;;;;;;;;;17.75;14.50;;;;;18.30;82.62;102143.69;5017839;28;45412;-70
2022/10/18 05:56:06;;;;;;;;;20.75;18.25;;;;;18.35;82.45;102151.59;5018096;28;46119;-70
2022/10/18 05:58:32;;;;;;;;;14.00;14.00;;;;;18.32;82.16;102152.59;5016175;28;46262;-70
2022/10/18 06:00:59;;;;;;;;;18.25;15.75;;;;;18.35;82.18;102160.56;5016851;28;45418;-69
2022/10/18 06:03:26;;;;;;;;;14.75;11.75;;;;;18.33;82.28;102165.19;5005189;28;45317;-70
2022/10/18 06:05:51;;;;;;;;;14.00;14.00;;;;;18.28;82.47;102153.69;5007518;28;46263;-70
2022/10/18 06:08:17;;;;;;;;;14.75;14.25;;;;;18.34;82.43;102169.63;5016362;28;45436;-70
2022/10/18 06:10:42;;;;;;;;;14.00;13.75;;;;;18.32;82.41;102172.38;5009785;28;45434;-70
2022/10/18 06:13:07;;;;;;;;;14.25;12.50;;;;;18.30;82.60;102168.00;5016545;28;45539;-70
2022/10/18 06:15:33;;;;;;;;;14.50;13.75;;;;;18.23;82.63;102156.56;5017748;28;45505;-70
2022/10/18 06:17:58;;;;;;;;;15.00;14.25;;;;;18.28;82.33;102178.00;5012877;28;45471;-70
2022/10/18 06:20:23;;;;;;;;;14.25;12.00;;;;;18.29;82.44;102185.16;5013163;28;45346;-69
2022/10/18 06:22:52;;;;;;;;;13.75;13.50;;;;;18.23;82.85;102180.91;5015040;28;45533;-75
2022/10/18 06:25:17;;;;;;;;;11.75;9.75;;;;;18.12;82.67;102157.00;5013690;28;47287;-77
2022/10/18 06:27:42;;;;;;;;;14.75;13.00;;;;;18.18;82.67;102163.13;5012401;28;45315;-77
2022/10/18 06:30:08;;;;;;;;;15.25;12.75;;;;;18.25;82.75;102175.44;5016961;28;45403;-79
2022/10/18 06:32:34;;;;;;;;;14.00;14.00;;;;;18.13;82.98;102155.22;5016591;28;46824;-78
2022/10/18 06:34:59;;;;;;;;;15.00;13.00;;;;;18.16;83.00;102157.78;5013652;28;46164;-74
2022/10/18 06:37:24;;;;;;;;;18.00;15.50;;;;;18.35;82.63;102192.16;5016658;28;45485;-75
2022/10/18 06:39:50;;;;;;;;;16.00;14.75;;;;;18.23;82.44;102161.09;5018495;28;45229;-75
2022/10/18 06:42:15;;;;;;;;;14.25;13.50;;;;;18.33;82.94;102189.50;5016730;28;45482;-75
2022/10/18 06:44:40;;;;;;;;;12.75;12.75;;;;;18.18;83.11;102166.69;5016506;28;47725;-75
2022/10/18 06:47:06;;;;;;;;;14.00;13.75;;;;;18.25;83.08;102175.44;5014955;28;45751;-74
2022/10/18 06:49:31;;;;;;;;;12.50;12.50;;;;;18.14;82.98;102168.66;5021589;28;45375;-75
2022/10/18 06:51:57;;;;;;;;;18.75;14.75;;;;;18.30;83.04;102195.03;5014039;28;45492;-75
2022/10/18 06:54:22;;;;;;;;;18.25;13.25;;;;;18.30;83.02;102200.44;5017958;28;46230;-75
2022/10/18 06:56:48;;;;;;;;;15.25;15.25;;;;;18.15;82.84;102178.50;5021953;28;45479;-75
2022/10/18 06:59:13;;;;;;;;;18.75;16.50;;;;;18.14;83.30;102182.16;5032489;28;45520;-75
2022/10/18 07:01:39;;;;;;;;;16.25;14.00;;;;;18.15;82.83;102185.75;5013805;28;45814;-75
2022/10/18 07:04:04;;;;;;;;;11.00;11.00;;;;;18.22;82.64;102200.75;5017439;28;45502;-78
2022/10/18 07:06:29;;;;;;;;;13.75;13.75;;;;;18.18;82.97;102201.84;5011353;28;46878;-79
2022/10/18 07:08:55;;;;;;;;;13.25;12.50;;;;;18.18;83.03;102201.84;5013280;28;45699;-79
2022/10/18 07:11:24;;;;;;;;;13.25;11.00;;;;;18.29;82.91;102223.00;5015087;28;45570;-77
2022/10/18 07:13:50;;;;;;;;;12.75;12.50;;;;;18.13;82.83;102202.00;5021105;28;45339;-77
2022/10/18 07:16:18;;;;;;;;;14.75;14.75;;;;;18.09;83.34;102194.09;5019372;28;45665;-77
2022/10/18 07:18:49;;;;;;;;;14.75;14.00;;;;;18.19;83.27;102205.41;5006845;28;45471;-69
2022/10/18 07:21:16;;;;;;;;;14.25;12.75;;;;;18.23;83.50;102216.03;5004314;28;45581;-69
2022/10/18 07:23:44;;;;;;;;;12.75;12.25;;;;;18.23;83.32;102225.97;5015769;28;45774;-69
2022/10/18 07:26:17;;;;;;;;;14.00;13.00;;;;;18.26;83.62;102231.22;5018386;28;45497;-69
2022/10/18 07:28:45;;;;;;;;;11.00;11.00;;;;;18.23;83.32;102220.56;5031878;28;45459;-69
2022/10/18 07:31:11;;;;;;;;;9.50;9.50;;;;;18.20;83.47;102223.41;5019186;28;45517;-69
2022/10/18 07:33:37;;;;;;;;;12.00;10.25;;;;;18.29;83.50;102233.81;5019316;28;45475;-69
2022/10/18 07:36:06;;;;;;;;;11.75;9.25;;;;;18.29;83.58;102240.13;5014288;28;45325;-69
2022/10/18 07:38:32;;;;;;;;;11.25;9.50;;;;;18.24;83.44;102228.63;5019547;28;45438;-69
2022/10/18 07:40:59;;;;;;;;;9.50;9.50;;;;;18.26;83.20;102232.13;5017441;28;45442;-69
2022/10/18 07:43:25;;;;;;;;;11.00;9.25;;;;;18.14;83.28;102211.91;5020480;28;45430;-69
2022/10/18 07:45:54;;;;;;;;;10.50;10.50;;;;;18.26;83.17;102236.63;5016901;28;45849;-69
2022/10/18 07:48:19;;;;;;;;;9.75;8.25;;;;;18.30;83.63;102246.41;5018719;28;45463;-69
2022/10/18 07:50:45;;;;;;;;;11.00;11.00;;;;;18.36;83.81;102253.34;5028673;28;45598;-69
2022/10/18 07:53:10;;;;;;;;;12.25;11.25;;;;;18.33;83.46;102248.97;5017199;28;46556;-69
2022/10/18 07:55:35;;;;;;;;;11.00;8.75;;;;;18.32;83.26;102252.59;5018163;28;45503;-69
2022/10/18 07:58:01;;;;;;;;;9.75;9.00;;;;;18.36;83.76;102258.75;5016319;28;45490;-69
2022/10/18 08:00:26;;;;;;;;;13.50;10.50;;;;;18.42;83.54;102267.50;5031469;28;45469;-69
2022/10/18 08:02:56;;;;;;;;;10.75;10.75;;;;;18.44;83.15;102272.84;5018426;28;46388;-69
2022/10/18 08:05:21;;;;;;;;;12.25;9.75;;;;;18.36;83.42;102261.47;5017311;28;45471;-69
2022/10/18 08:07:46;;;;;;;;;11.00;11.00;;;;;18.39;82.91;102266.75;5019111;28;45576;-69
2022/10/18 08:10:12;;;;;;;;;10.25;10.00;;;;;18.40;82.85;102266.69;5013689;28;46018;-69
2022/10/18 08:12:37;;;;;;;;;11.00;9.50;;;;;18.35;82.76;102263.31;5010969;28;47254;-69
2022/10/18 08:15:03;;;;;;;;;7.00;6.25;;;;;18.37;82.39;102277.63;5017367;28;45543;-69
2022/10/18 08:17:28;;;;;;;;;5.75;5.75;;;;;18.32;82.69;102267.00;5014513;28;45553;-69
2022/10/18 08:19:53;;;;;;;;;8.00;8.00;;;;;18.31;82.18;102269.78;5017620;28;46627;-69
2022/10/18 08:22:21;;;;;;;;;7.00;7.00;;;;;18.33;82.48;102278.72;5020591;28;52390;-69
2022/10/18 08:24:47;;;;;;;;;9.50;8.50;;;;;18.30;82.51;102276.13;5023024;28;45412;-69
2022/10/18 08:27:12;;;;;;;;;10.00;8.75;;;;;18.36;82.74;102302.03;5016881;28;45356;-69
2022/10/18 08:29:37;;;;;;;;;3.25;3.25;;;;;18.28;82.24;102294.25;5018190;28;45757;-69
2022/10/18 08:32:03;;;;;;;;;9.50;8.25;;;;;18.33;82.66;102303.03;5017778;28;45857;-69
2022/10/18 08:34:28;;;;;;;;;9.75;9.25;;;;;18.33;82.30;102308.44;5021546;28;45533;-69
2022/10/18 08:36:53;;;;;;;;;6.25;6.25;;;;;18.32;82.59;102296.72;5019969;28;45371;-69
2022/10/18 08:39:19;;;;;;;;;8.00;8.00;;;;;18.35;82.62;102306.56;5018595;28;45750;-69
2022/10/18 08:42:03;;;;;;;;;7.50;6.25;;;;;18.28;82.24;102299.66;5018026;28;45418;-69
2022/10/18 08:44:32;;;;;;;;;9.75;9.75;;;;;18.26;82.56;102294.31;5021359;28;45374;-69
2022/10/18 08:47:13;;;;;;;;;9.25;7.50;;;;;18.25;82.23;102289.81;5015145;28;47300;-69
2022/10/18 08:49:47;;;;;;;;;7.00;6.75;;;;;18.22;82.36;102284.53;5033607;28;45902;-69
2022/10/18 08:52:24;;;;;;;;;8.75;8.25;;;;;18.30;82.37;102295.91;5016346;28;45486;-69
2022/10/18 08:55:28;;;;;;;;;7.25;6.75;;;;;18.27;82.24;102293.34;5019512;28;45424;-69
2022/10/18 08:57:56;;;;;;;;;5.25;5.00;;;;;18.29;81.84;102293.28;4992484;28;45393;-69
2022/10/18 09:00:24;;;;;;;;;4.75;4.75;;;;;18.27;82.31;102287.06;5016340;28;45292;-69
2022/10/18 09:02:49;;;;;;;;;7.75;7.75;;;;;18.29;82.16;102287.88;5021808;28;47131;-70
2022/10/18 09:05:29;;;;;;;;;5.25;5.25;;;;;18.30;83.16;102295.91;5029597;28;45838;-67
2022/10/18 09:08:32;;;;;;;;;9.25;9.25;;;;;18.36;82.80;102291.22;5013258;28;46999;-68
2022/10/18 09:11:09;;;;;;;;;14.50;13.75;;;;;18.37;82.63;102277.63;5012867;28;45536;-72
2022/10/18 09:14:13;;;;;;;;;11.25;10.00;;;;;18.40;82.59;102292.84;5028516;28;47598;-70
2022/10/18 09:16:49;;;;;;;;;10.00;9.00;;;;;18.33;82.77;102279.59;5029114;28;45498;-69
2022/10/18 09:19:33;;;;;;;;;10.75;10.25;;;;;18.45;82.70;102285.44;5017709;28;45648;-69
2022/10/18 09:22:11;;;;;;;;;7.50;7.50;;;;;18.45;82.77;102285.44;5017739;28;45379;-69
2022/10/18 09:24:44;;;;;;;;;9.50;8.75;;;;;18.45;82.87;102283.59;5016005;28;46481;-69
2022/10/18 09:27:23;;;;;;;;;9.25;7.25;;;;;18.43;82.72;102282.78;5016963;28;45834;-69
2022/10/18 09:30:06;;;;;;;;;6.00;6.00;;;;;18.52;83.10;102287.81;4998505;28;46845;-69
2022/10/18 09:32:43;;;;;;;;;6.00;6.00;;;;;18.56;83.16;102293.09;5015496;28;45613;-69
2022/10/18 09:35:27;;;;;;;;;6.50;5.00;;;;;18.58;83.09;102288.53;5016038;28;45515;-69
2022/10/18 09:38:01;;;;;;;;;5.50;4.25;;;;;18.58;82.93;102286.69;5016827;28;45473;-69
2022/10/18 09:40:31;;;;;;;;;5.25;5.25;;;;;18.60;83.22;102284.78;5013400;28;45651;-67
2022/10/18 09:43:02;;;;;;;;;6.00;4.00;;;;;18.63;82.11;102294.63;5015456;28;45650;-69
2022/10/18 09:45:38;;;;;;;;;4.00;4.00;;;;;18.63;82.21;102284.69;5012118;28;47439;-69
2022/10/18 09:48:14;;;;;;;;;6.00;5.50;;;;;18.65;82.19;102281.91;5015092;28;45773;-69
2022/10/18 09:51:02;;;;;;;;;5.00;5.00;;;;;18.63;82.04;102284.69;5015355;28;45367;-69
2022/10/18 09:53:42;;;;;;;;;7.00;6.50;;;;;18.70;82.63;102296.13;5017706;28;45387;-69
2022/10/18 09:56:14;;;;;;;;;4.50;4.25;;;;;18.65;81.45;102296.31;5017822;28;48447;-69
2022/10/18 09:58:39;;;;;;;;;2.75;2.75;;;;;18.68;81.40;102298.88;5016611;28;45347;-69
2022/10/18 10:01:06;;;;;;;;;4.00;2.75;;;;;18.64;81.50;102294.56;5012338;28;46907;-69
2022/10/18 10:03:32;;;;;;;;;3.00;3.00;;;;;18.63;81.42;102295.50;5013406;28;45703;-69
2022/10/18 10:06:15;;;;;;;;;4.50;4.00;;;;;18.66;81.36;102302.56;5016660;28;46187;-69
2022/10/18 10:08:48;;;;;;;;;5.50;5.50;;;;;18.57;81.76;102287.63;5016908;28;45543;-69
2022/10/18 10:11:29;;;;;;;;;4.00;4.00;;;;;18.63;81.70;102286.50;5012078;28;45490;-69
2022/10/18 10:14:24;;;;;;;;;6.00;3.50;;;;;18.70;81.79;102291.56;5015888;28;45862;-69
2022/10/18 10:17:15;;;;;;;;;4.25;2.50;;;;;18.76;81.88;102286.84;5015583;28;45491;-69
2022/10/18 10:20:00;;;;;;;;;4.75;4.00;;;;;18.78;81.76;102282.28;5017198;28;45497;-69
2022/10/18 10:22:38;;;;;;;;;5.00;4.75;;;;;18.79;81.94;102289.44;5016897;28;45453;-69
2022/10/18 10:25:06;;;;;;;;;10.00;4.00;;;;;18.79;81.34;102286.72;5016147;28;45408;-69
2022/10/18 10:27:42;;;;;;;;;3.00;3.00;;;;;18.85;81.67;102295.50;5015019;28;45455;-69
2022/10/18 10:30:27;;;;;;;;;5.00;5.00;;;;;18.90;81.40;102303.41;5027567;28;45687;-69
2022/10/18 10:32:54;;;;;;;;;5.00;3.75;;;;;18.91;81.73;102304.28;5018136;28;45524;-69
2022/10/18 10:35:32;;;;;;;;;2.50;2.25;;;;;18.87;81.89;102290.88;5013513;28;45557;-69
2022/10/18 10:37:58;;;;;;;;;2.00;2.00;;;;;18.86;81.60;102283.75;5019979;28;46245;-69
2022/10/18 10:40:45;;;;;;;;;2.00;2.00;;;;;18.97;81.88;102299.50;5023438;28;45499;-69
2022/10/18 10:43:32;;;;;;;;;2.25;1.75;;;;;19.00;81.16;102293.97;5019765;28;45506;-69
2022/10/18 10:46:00;;;;;;;;;3.00;3.00;;;;;19.02;82.09;102297.47;5019149;28;45454;-69
2022/10/18 10:48:29;;;;;;;;;3.25;3.25;;;;;19.05;81.70;102288.34;5020977;28;46132;-69
2022/10/18 10:51:09;;;;;;;;;5.00;5.00;;;;;19.05;81.72;102286.53;5019064;28;45768;-69
2022/10/18 10:53:35;;;;;;;;;4.00;4.00;;;;;19.06;81.68;102296.41;5021849;28;45392;-69
2022/10/18 10:56:01;;;;;;;;;4.75;4.75;;;;;19.08;81.99;102290.94;5017549;28;45646;-69
2022/10/18 10:58:32;;;;;;;;;3.50;3.50;;;;;19.08;81.88;102282.81;5020506;28;46317;-69
2022/10/18 11:00:57;;;;;;;;;5.00;4.00;;;;;19.12;81.71;102292.53;5021185;28;45703;-69
2022/10/18 11:03:23;;;;;;;;;5.50;4.50;;;;;19.12;81.64;102281.72;5021175;28;45424;-69
2022/10/18 11:05:52;;;;;;;;;6.25;6.25;;;;;19.07;81.47;102281.03;5018791;28;45661;-69
2022/10/18 11:08:44;;;;;;;;;5.75;5.00;;;;;19.14;82.06;102285.22;5021309;28;45607;-69
2022/10/18 11:11:21;;;;;;;;;9.00;8.25;;;;;19.15;81.73;102280.72;5011716;28;46571;-69
2022/10/18 11:14:29;;;;;;;;;10.75;9.25;;;;;19.15;82.33;102278.88;5014955;28;45496;-69
2022/10/18 11:17:01;;;;;;;;;11.75;11.75;;;;;19.10;82.20;102272.78;5018253;28;45701;-69
2022/10/18 11:19:38;;;;;;;;;9.00;9.00;;;;;19.19;82.05;102287.75;5019524;28;47396;-69
2022/10/18 11:22:08;;;;;;;;;11.75;10.00;;;;;19.19;82.28;102277.78;5020894;28;45631;-69
2022/10/18 11:24:35;;;;;;;;;9.25;9.25;;;;;19.18;81.81;102273.34;5021333;28;45321;-69
2022/10/18 11:27:05;;;;;;;;;9.00;8.50;;;;;19.22;81.78;102268.66;5017998;28;45490;-69